This is the latest recevied weather packets stored in our database for station/object AA7DG. If no packets are shown the sender has not sent any weather packets the latest 10 day(s).
| Time | Temp. | Humidity | Pressure | Rain* | Wind** | Luminosity | Snow |
|---|---|---|---|---|---|---|---|
| 1778065801 | 7.78° C | 82% | 1014.2 hPa | - | - | - | - |
| 1778064906 | 8.33° C | 80% | 1014.2 hPa | - | - | - | - |
| 1778061301 | 8.89° C | 76% | 1014.2 hPa | - | - | - | - |
| 1778059501 | 9.44° C | 74% | 1014.2 hPa | - | - | - | - |
| 1778057711 | 10° C | 72% | 1014.2 hPa | - | - | - | - |
| 1778052611 | 11.67° C | 63% | 1013.9 hPa | - | - | - | - |
| 1778052301 | 11.67° C | 64% | 1013.9 hPa | - | - | - | - |
| 1778050512 | 12.22° C | 62% | 1013.5 hPa | - | - | - | - |
| 1778049601 | 13.33° C | 60% | 1013.5 hPa | - | - | - | - |
| 1778049301 | 13.33° C | 57% | 1013.5 hPa | - | - | - | - |
| 1778048711 | 13.89° C | 56% | 1013.5 hPa | - | - | - | - |
| 1778046001 | 14.44° C | 56% | 1013.2 hPa | - | - | - | - |
| 1778044218 | 15.56° C | 52% | 1012.9 hPa | - | - | - | - |
| 1778042401 | 16.67° C | 48% | 1012.5 hPa | - | - | - | - |
| 1778042104 | 16.67° C | 47% | 1012.5 hPa | - | - | - | - |
| 1778039702 | 18.89° C | 40% | 1012.1 hPa | - | - | - | - |
| 1778035202 | 22.78° C | 27% | 1011.5 hPa | - | - | - | - |
| 1778034602 | 23.33° C | 27% | 1011.4 hPa | - | - | - | - |
| 1778034001 | 23.89° C | 27% | 1011.2 hPa | - | - | - | - |
| 1778032801 | 23.89° C | 27% | 1011.2 hPa | - | - | - | - |
| 1778030406 | 24.44° C | 25% | 1011.5 hPa | - | - | - | - |
| 1778029501 | 24.44° C | 25% | 1011.5 hPa | - | - | - | - |
| 1778028304 | 25° C | 25% | 1011.5 hPa | - | - | - | - |
| 1778028006 | 25° C | 24% | 1011.5 hPa | - | - | - | - |
| 1778025602 | 26.11° C | 23% | 1012 hPa | - | - | - | - |
* Rain since midnight (hover to see other rain measurements)
** Current wind speed in m/s (hover to see current wind gust speed)